Time;durP1;ratioP1;P1;durP2;ratioP2;P2;SDS_P1;SDS_P2;PMS_P1;PMS_P2;Temp;Humidity;BMP_temperature;BMP_pressure;BME280_temperature;BME280_humidity;BME280_pressure;Samples;Min_cycle;Max_cycle;Signal;HPM_P1;HPM_P2
2022/06/18 00:01:21;;;;;;;;;22.00;20.00;;;;;22.63;50.43;101369.73;110353;1264;19630;-47
2022/06/18 00:03:48;;;;;;;;;20.33;20.00;;;;;22.66;50.28;101371.36;110286;1265;19137;-48
2022/06/18 00:06:15;;;;;;;;;22.00;20.00;;;;;22.70;50.38;101373.40;110303;1264;18990;-48
2022/06/18 00:08:42;;;;;;;;;22.67;21.67;;;;;22.65;50.62;101372.77;110323;1264;19520;-47
2022/06/18 00:13:51;;;;;;;;;25.33;23.33;;;;;22.67;50.59;101367.70;110333;1264;18866;-47
2022/06/18 00:16:18;;;;;;;;;24.67;23.00;;;;;22.61;50.62;101364.85;110289;1264;19497;-49
2022/06/18 00:18:45;;;;;;;;;24.00;22.00;;;;;22.62;50.77;101362.94;110281;1264;20922;-48
2022/06/18 00:21:13;;;;;;;;;23.00;22.67;;;;;22.70;50.53;101364.84;110308;1265;18868;-49
2022/06/18 00:23:40;;;;;;;;;23.00;21.00;;;;;22.72;50.28;101365.52;110242;1264;19544;-48
2022/06/18 00:26:08;;;;;;;;;22.00;19.00;;;;;22.75;50.23;101364.95;110222;1265;22576;-45
2022/06/18 00:28:35;;;;;;;;;23.33;22.67;;;;;22.76;50.22;101361.02;110120;1264;18786;-48
2022/06/18 00:31:03;;;;;;;;;23.00;21.67;;;;;22.79;50.10;101359.42;110312;1265;19511;-48
2022/06/18 00:33:30;;;;;;;;;24.00;22.00;;;;;22.80;50.23;101356.91;110284;1264;18982;-47
2022/06/18 00:35:57;;;;;;;;;21.67;21.00;;;;;22.81;50.14;101356.44;110211;1264;18840;-48
2022/06/18 00:38:25;;;;;;;;;23.00;23.00;;;;;22.78;50.04;101353.16;110268;1265;22285;-48
2022/06/18 00:40:52;;;;;;;;;23.00;20.50;;;;;22.77;50.28;101357.13;110339;1264;18713;-48
2022/06/18 00:43:19;;;;;;;;;24.33;23.67;;;;;22.81;50.27;101357.48;110290;1264;18823;-46
2022/06/18 00:45:47;;;;;;;;;24.00;23.00;;;;;22.81;50.20;101355.52;110281;1265;22708;-47
2022/06/18 00:48:14;;;;;;;;;20.67;19.00;;;;;22.77;50.29;101355.27;110293;1264;20259;-48
2022/06/18 00:50:41;;;;;;;;;19.00;18.00;;;;;22.73;50.36;101354.27;110232;1265;18781;-47
2022/06/18 00:53:08;;;;;;;;;19.50;19.00;;;;;22.70;50.45;101347.08;110285;1265;19469;-47
2022/06/18 00:55:36;;;;;;;;;18.67;18.00;;;;;22.74;50.49;101347.95;110160;1265;19019;-47
2022/06/18 00:58:03;;;;;;;;;25.00;22.33;;;;;22.72;50.70;101345.59;110276;1265;19109;-44
2022/06/18 01:00:30;;;;;;;;;23.00;21.67;;;;;22.67;50.72;101344.69;110307;1264;19466;-47
2022/06/18 01:02:57;;;;;;;;;25.00;20.00;;;;;22.64;50.83;101339.91;110236;1264;18692;-48
2022/06/18 01:05:25;;;;;;;;;19.50;19.00;;;;;22.64;50.65;101340.86;110282;1264;18963;-48
2022/06/18 01:07:53;;;;;;;;;19.00;18.67;;;;;22.63;50.60;101335.98;110304;1264;19651;-48
2022/06/18 01:10:21;;;;;;;;;20.00;19.00;;;;;22.62;50.60;101336.67;110309;1264;22772;-48
2022/06/18 01:12:48;;;;;;;;;19.00;18.33;;;;;22.64;50.45;101334.62;110309;1264;18947;-48
2022/06/18 01:15:20;;;;;;;;;19.67;19.00;;;;;22.70;50.32;101329.63;110293;1264;19649;-47
2022/06/18 01:17:48;;;;;;;;;21.67;18.33;;;;;22.69;50.17;101329.59;110317;1264;18962;-47
2022/06/18 01:20:15;;;;;;;;;18.67;18.00;;;;;22.72;50.09;101327.08;110296;1264;20576;-46
2022/06/18 01:22:42;;;;;;;;;20.00;20.00;;;;;22.73;50.11;101328.73;110255;1264;20317;-48
2022/06/18 01:25:09;;;;;;;;;18.00;18.00;;;;;22.73;49.89;101323.25;110281;1264;18978;-48
2022/06/18 01:27:37;;;;;;;;;18.67;18.00;;;;;22.70;50.04;101323.12;110221;1263;18916;-48
2022/06/18 01:30:04;;;;;;;;;20.50;19.50;;;;;22.70;50.04;101318.48;110281;1264;22258;-47
2022/06/18 01:32:31;;;;;;;;;19.00;19.00;;;;;22.61;50.12;101314.55;110291;1264;18979;-48
2022/06/18 01:34:58;;;;;;;;;20.00;18.67;;;;;22.58;50.31;101310.71;110278;1264;19132;-48
2022/06/18 01:37:26;;;;;;;;;20.50;19.50;;;;;22.62;50.39;101313.38;110313;1264;21320;-48
2022/06/18 01:39:53;;;;;;;;;21.50;20.00;;;;;22.64;50.21;101311.83;110301;1264;18681;-46
2022/06/18 01:42:20;;;;;;;;;18.33;18.33;;;;;22.64;50.26;101312.75;110301;1264;18961;-48
2022/06/18 01:44:47;;;;;;;;;19.33;19.00;;;;;22.67;50.25;101306.08;110313;1264;20041;-48
2022/06/18 01:47:15;;;;;;;;;19.00;18.00;;;;;22.67;50.44;101306.09;110259;1264;22248;-47
2022/06/18 01:49:42;;;;;;;;;22.00;19.33;;;;;22.58;50.56;101298.33;110309;1264;18899;-47
2022/06/18 01:52:09;;;;;;;;;22.00;20.33;;;;;22.50;50.88;101297.88;110302;1264;19734;-47
2022/06/18 01:54:36;;;;;;;;;20.33;19.00;;;;;22.47;50.87;101293.89;110270;1264;19016;-50
2022/06/18 01:57:04;;;;;;;;;18.33;18.33;;;;;22.46;50.98;101292.48;110273;1264;18949;-48
2022/06/18 01:59:31;;;;;;;;;19.00;19.00;;;;;22.45;51.24;101287.31;110303;1264;19774;-47
2022/06/18 02:01:58;;;;;;;;;22.33;20.67;;;;;22.50;51.20;101289.48;110316;1264;18872;-50
2022/06/18 02:04:25;;;;;;;;;21.00;20.00;;;;;22.52;50.97;101284.90;110313;1264;18868;-47
2022/06/18 02:06:53;;;;;;;;;21.67;20.00;;;;;22.49;51.07;101286.11;110273;1264;19533;-48
2022/06/18 02:09:21;;;;;;;;;23.33;23.00;;;;;22.49;51.21;101281.15;110277;1264;18986;-47
2022/06/18 02:11:48;;;;;;;;;26.00;25.67;;;;;22.48;51.06;101279.34;110249;1265;19046;-47
2022/06/18 02:14:15;;;;;;;;;22.67;21.33;;;;;22.47;51.10;101278.27;110273;1264;19496;-47
2022/06/18 02:16:43;;;;;;;;;24.33;23.00;;;;;22.47;51.38;101278.38;110345;1264;18702;-48
2022/06/18 02:19:10;;;;;;;;;28.00;26.33;;;;;22.49;51.18;101278.33;110274;1264;19261;-48
2022/06/18 02:21:37;;;;;;;;;26.67;26.67;;;;;22.47;51.27;101275.83;110291;1264;19563;-48
2022/06/18 02:24:05;;;;;;;;;28.33;28.33;;;;;22.41;51.33;101277.55;110268;1265;18705;-49
2022/06/18 02:26:32;;;;;;;;;22.00;21.67;;;;;22.41;51.36;101276.11;110274;1265;19129;-48
2022/06/18 02:28:59;;;;;;;;;21.67;21.67;;;;;22.37;51.52;101281.32;110262;1264;21719;-48
2022/06/18 02:31:26;;;;;;;;;29.33;26.67;;;;;22.34;51.63;101282.67;110111;1265;18939;-45
2022/06/18 02:33:54;;;;;;;;;21.67;18.67;;;;;22.34;51.65;101277.80;110205;1264;24512;-46
2022/06/18 02:36:21;;;;;;;;;26.50;25.50;;;;;22.37;51.65;101282.02;110237;1264;19587;-44
2022/06/18 02:38:48;;;;;;;;;24.67;23.00;;;;;22.42;51.47;101280.52;110147;1265;18983;-48
2022/06/18 02:41:16;;;;;;;;;27.50;26.00;;;;;22.40;51.63;101277.64;110241;1265;20353;-45
2022/06/18 02:43:43;;;;;;;;;21.50;20.00;;;;;22.34;51.81;101273.73;110293;1264;19841;-45
2022/06/18 02:46:10;;;;;;;;;22.50;20.00;;;;;22.28;51.81;101272.83;110258;1264;18871;-48
2022/06/18 02:48:38;;;;;;;;;22.33;21.33;;;;;22.31;52.08;101274.33;110288;1263;22642;-49
2022/06/18 02:51:05;;;;;;;;;22.00;21.33;;;;;22.34;52.01;101273.84;110263;1264;19773;-47
2022/06/18 02:53:32;;;;;;;;;22.50;21.50;;;;;22.35;52.15;101275.89;110279;1264;18825;-48
2022/06/18 02:56:00;;;;;;;;;22.00;19.00;;;;;22.37;52.10;101277.27;110251;1264;18778;-46
2022/06/18 02:58:27;;;;;;;;;19.67;18.33;;;;;22.41;51.87;101278.34;110268;1265;21090;-46
2022/06/18 03:00:55;;;;;;;;;18.50;18.00;;;;;22.38;51.96;101278.63;110200;1265;18676;-48
2022/06/18 03:03:22;;;;;;;;;23.33;20.00;;;;;22.32;51.91;101275.84;110236;1265;18826;-50
2022/06/18 03:05:49;;;;;;;;;22.67;22.67;;;;;22.29;51.99;101274.89;110251;1264;19840;-47
2022/06/18 03:08:16;;;;;;;;;21.00;21.00;;;;;22.31;51.90;101277.60;110282;1264;18728;-44
2022/06/18 03:13:28;;;;;;;;;19.00;19.00;;;;;22.33;51.73;101278.12;110329;1264;19530;-49
2022/06/18 03:15:56;;;;;;;;;22.00;21.33;;;;;22.31;51.53;101277.07;110271;1265;18783;-48
2022/06/18 03:18:23;;;;;;;;;20.00;19.00;;;;;22.31;51.62;101273.24;110218;1263;18915;-48
2022/06/18 03:20:50;;;;;;;;;21.00;20.67;;;;;22.30;51.61;101269.05;110233;1264;19541;-46
2022/06/18 03:23:17;;;;;;;;;19.00;19.00;;;;;22.29;51.40;101269.16;110175;1264;18837;-47
2022/06/18 03:25:45;;;;;;;;;19.00;18.00;;;;;22.29;51.45;101269.66;110327;1264;18795;-47
2022/06/18 03:28:12;;;;;;;;;21.00;19.00;;;;;22.28;51.29;101267.77;110198;1264;19705;-51
2022/06/18 03:30:40;;;;;;;;;18.50;18.50;;;;;22.25;51.29;101259.33;110199;1264;22412;-49
2022/06/18 03:33:07;;;;;;;;;17.67;17.67;;;;;22.25;51.35;101264.65;110241;1265;23079;-47
2022/06/18 03:35:34;;;;;;;;;18.50;18.00;;;;;22.31;51.10;101261.23;110279;1264;19784;-44
2022/06/18 03:38:02;;;;;;;;;18.33;18.00;;;;;22.32;50.90;101255.84;110295;1264;20165;-48
2022/06/18 03:40:29;;;;;;;;;20.00;17.00;;;;;22.30;51.12;101250.92;110271;1264;19056;-49
2022/06/18 03:42:56;;;;;;;;;18.33;17.00;;;;;22.30;51.12;101251.36;110263;1264;22271;-49
2022/06/18 03:45:24;;;;;;;;;17.67;17.67;;;;;22.24;50.98;101252.23;110236;1264;18701;-48
2022/06/18 03:47:51;;;;;;;;;18.00;18.00;;;;;22.21;51.13;101252.34;110110;1264;18869;-46
2022/06/18 03:50:18;;;;;;;;;22.00;20.00;;;;;22.18;51.28;101257.67;110209;1264;22158;-46
2022/06/18 03:52:45;;;;;;;;;18.00;18.00;;;;;22.20;51.17;101253.60;110307;1263;18800;-48
2022/06/18 03:55:13;;;;;;;;;17.67;17.00;;;;;22.24;51.07;101248.72;110290;1263;18973;-47
2022/06/18 03:57:40;;;;;;;;;18.00;17.00;;;;;22.24;51.01;101247.63;110268;1264;19738;-47
2022/06/18 04:00:08;;;;;;;;;22.00;21.00;;;;;22.27;50.91;101247.51;110314;1265;22245;-49
2022/06/18 04:02:35;;;;;;;;;20.00;18.50;;;;;22.30;50.90;101248.60;110291;1264;19203;-47
2022/06/18 04:05:02;;;;;;;;;20.33;18.33;;;;;22.29;50.95;101255.66;110226;1264;19760;-47
2022/06/18 04:07:29;;;;;;;;;18.00;18.00;;;;;22.31;50.85;101251.74;110294;1265;20085;-48
2022/06/18 04:10:01;;;;;;;;;17.67;17.00;;;;;22.32;50.73;101245.86;110314;1264;18965;-47
2022/06/18 04:12:28;;;;;;;;;17.50;17.00;;;;;22.30;50.85;101238.19;110237;1264;20035;-49
2022/06/18 04:14:55;;;;;;;;;17.67;14.00;;;;;22.28;50.88;101235.19;110284;1265;18760;-48
2022/06/18 04:17:23;;;;;;;;;17.33;17.00;;;;;22.27;50.68;101236.38;110195;1264;23084;-46
2022/06/18 04:19:50;;;;;;;;;15.67;15.67;;;;;22.29;50.72;101236.01;110299;1264;19805;-47
2022/06/18 04:22:18;;;;;;;;;16.00;15.00;;;;;22.33;50.46;101237.83;110216;1264;18802;-48
2022/06/18 04:24:45;;;;;;;;;16.33;14.67;;;;;22.32;50.57;101234.52;110311;1264;18785;-47
2022/06/18 04:27:12;;;;;;;;;18.00;17.00;;;;;22.34;50.39;101235.23;110280;1264;20430;-47
2022/06/18 04:29:39;;;;;;;;;16.33;15.33;;;;;22.37;50.34;101235.98;110276;1265;18885;-47
2022/06/18 04:32:07;;;;;;;;;17.00;17.00;;;;;22.42;50.42;101237.40;110305;1264;22271;-48
2022/06/18 04:34:34;;;;;;;;;17.00;17.00;;;;;22.42;50.16;101241.19;110315;1264;19486;-49
2022/06/18 04:37:01;;;;;;;;;17.00;16.33;;;;;22.37;50.15;101242.48;110289;1265;19058;-48
2022/06/18 04:39:28;;;;;;;;;17.67;17.67;;;;;22.34;50.32;101239.58;110276;1264;21150;-47
2022/06/18 04:41:56;;;;;;;;;18.00;17.00;;;;;22.37;50.40;101241.37;110239;1264;19484;-49
2022/06/18 04:44:23;;;;;;;;;15.00;15.00;;;;;22.43;50.18;101242.40;110268;1264;18856;-49
2022/06/18 04:46:50;;;;;;;;;18.50;15.00;;;;;22.43;50.17;101242.45;110306;1264;19169;-48
2022/06/18 04:49:17;;;;;;;;;17.00;17.00;;;;;22.47;50.12;101241.79;110279;1265;19623;-48
2022/06/18 04:51:44;;;;;;;;;21.67;19.00;;;;;22.47;50.25;101241.60;110246;1265;18659;-48
2022/06/18 04:54:12;;;;;;;;;18.00;17.00;;;;;22.39;50.17;101238.10;110295;1264;19147;-47
2022/06/18 04:56:39;;;;;;;;;17.00;17.00;;;;;22.32;50.41;101228.69;110295;1264;19562;-48
2022/06/18 04:59:07;;;;;;;;;21.00;18.00;;;;;22.31;50.55;101226.45;110283;1263;18791;-46
2022/06/18 05:01:34;;;;;;;;;17.00;17.00;;;;;22.32;50.53;101228.01;110282;1265;19166;-48
2022/06/18 05:04:02;;;;;;;;;17.00;15.67;;;;;22.40;50.35;101229.82;110299;1264;19552;-47
2022/06/18 05:06:29;;;;;;;;;23.00;20.67;;;;;22.48;50.45;101228.09;110270;1264;22119;-49
2022/06/18 05:08:56;;;;;;;;;21.00;18.00;;;;;22.46;50.27;101227.45;110296;1264;19161;-47
2022/06/18 05:11:24;;;;;;;;;19.00;18.67;;;;;22.44;50.36;101218.83;110285;1264;19823;-48
2022/06/18 05:13:51;;;;;;;;;21.00;18.33;;;;;22.39;50.54;101212.92;110336;1265;18763;-49
2022/06/18 05:16:18;;;;;;;;;18.50;18.00;;;;;22.36;50.56;101208.70;110292;1264;19067;-47
2022/06/18 05:18:45;;;;;;;;;18.67;17.33;;;;;22.36;50.72;101203.80;110291;1264;19718;-49
2022/06/18 05:21:13;;;;;;;;;18.00;18.00;;;;;22.34;50.68;101202.91;110254;1264;18811;-48
2022/06/18 05:23:40;;;;;;;;;18.00;17.33;;;;;22.34;50.80;101197.55;110297;1264;21122;-46
2022/06/18 05:26:07;;;;;;;;;21.33;18.67;;;;;22.41;50.95;101196.73;110317;1264;19656;-48
2022/06/18 05:28:34;;;;;;;;;17.67;17.67;;;;;22.46;51.30;101195.73;110276;1264;18938;-48
2022/06/18 05:31:02;;;;;;;;;18.33;17.67;;;;;22.54;51.12;101194.70;110270;1263;21976;-47
2022/06/18 05:33:29;;;;;;;;;21.00;18.00;;;;;22.57;51.18;101187.58;110282;1264;21867;-49
2022/06/18 05:35:56;;;;;;;;;17.00;15.00;;;;;22.49;51.78;101191.20;110257;1263;18929;-48
2022/06/18 05:38:24;;;;;;;;;17.00;15.00;;;;;22.37;52.07;101186.92;110278;1264;18832;-48
2022/06/18 05:40:51;;;;;;;;;17.00;15.67;;;;;22.42;51.99;101184.92;110327;1265;20564;-47
2022/06/18 05:43:19;;;;;;;;;20.00;18.50;;;;;22.41;52.05;101183.96;110093;1264;218000;-48
2022/06/18 05:45:46;;;;;;;;;22.00;22.00;;;;;22.37;52.13;101180.77;110243;1264;19688;-48
2022/06/18 05:48:13;;;;;;;;;18.50;18.00;;;;;22.37;52.27;101179.21;110240;1264;19929;-47
2022/06/18 05:50:41;;;;;;;;;18.50;18.00;;;;;22.50;51.87;101173.08;110188;1264;18860;-48
2022/06/18 05:53:08;;;;;;;;;20.00;18.50;;;;;22.57;51.71;101170.06;110294;1265;22193;-46
2022/06/18 05:55:35;;;;;;;;;17.33;17.00;;;;;22.61;51.62;101168.16;110312;1264;19510;-47
2022/06/18 05:58:02;;;;;;;;;17.67;16.33;;;;;22.70;51.47;101172.83;110293;1265;20727;-47
2022/06/18 06:00:30;;;;;;;;;17.00;15.00;;;;;22.76;51.48;101178.95;110291;1264;19206;-48
2022/06/18 06:02:57;;;;;;;;;18.50;17.50;;;;;22.81;51.37;101181.34;110264;1263;22358;-47
2022/06/18 06:05:25;;;;;;;;;19.00;17.00;;;;;22.80;51.35;101182.34;110261;1264;18764;-49
2022/06/18 06:07:53;;;;;;;;;17.67;15.00;;;;;22.69;51.74;101177.27;110230;1264;18818;-48
2022/06/18 06:13:01;;;;;;;;;18.50;18.00;;;;;22.71;51.92;101168.79;109542;1270;18682;-47
2022/06/18 06:15:28;;;;;;;;;15.00;15.00;;;;;22.75;52.06;101160.70;109538;1270;19103;-48
2022/06/18 06:17:56;;;;;;;;;17.67;17.00;;;;;22.66;52.32;101153.86;109536;1270;19794;-49
2022/06/18 06:20:24;;;;;;;;;19.50;17.00;;;;;22.73;52.50;101152.44;109552;1270;19086;-47
2022/06/18 06:22:52;;;;;;;;;17.00;15.00;;;;;22.62;52.48;101151.63;109467;1270;18838;-48
2022/06/18 06:25:19;;;;;;;;;17.50;17.00;;;;;22.58;52.89;101152.64;109489;1270;22865;-49
2022/06/18 06:27:46;;;;;;;;;15.50;15.50;;;;;22.30;53.47;101151.52;109560;1270;22854;-46
2022/06/18 06:30:14;;;;;;;;;15.67;14.67;;;;;22.05;53.86;101150.63;109584;1270;19520;-47
2022/06/18 06:32:41;;;;;;;;;17.00;15.00;;;;;21.97;54.08;101142.11;109597;1270;22128;-46
2022/06/18 06:35:08;;;;;;;;;16.67;14.00;;;;;21.92;53.93;101139.36;109585;1270;19534;-46
2022/06/18 06:37:36;;;;;;;;;15.50;15.50;;;;;22.01;53.97;101140.09;109594;1270;18845;-46
2022/06/18 06:40:03;;;;;;;;;14.00;14.00;;;;;22.20;53.57;101144.33;109573;1270;19688;-48
2022/06/18 06:42:30;;;;;;;;;15.67;14.00;;;;;22.25;53.55;101141.07;109519;1270;18864;-47
2022/06/18 06:44:58;;;;;;;;;16.00;15.00;;;;;22.15;53.51;101142.77;109532;1270;22184;-49
2022/06/18 06:47:26;;;;;;;;;15.00;13.67;;;;;22.18;53.56;101143.44;109565;1270;23141;-48
2022/06/18 06:49:53;;;;;;;;;15.33;14.00;;;;;22.17;53.53;101142.48;109592;1265;22236;-48
2022/06/18 06:52:20;;;;;;;;;17.00;17.00;;;;;22.28;53.45;101139.03;110277;1264;18883;-47
2022/06/18 06:57:21;;;;;;;;;13.00;13.00;;;;;22.40;53.07;101139.48;110251;1264;19530;-47
2022/06/18 06:57:35;;;;;;;;;14.00;13.00;;;;;22.42;53.12;101139.83;110220;1264;18693;-46
2022/06/18 07:00:02;;;;;;;;;14.00;13.67;;;;;22.56;52.84;101141.55;110295;1264;19230;-47
2022/06/18 07:02:30;;;;;;;;;14.00;14.00;;;;;22.72;52.52;101146.14;110287;1264;19563;-49
2022/06/18 07:04:57;;;;;;;;;18.33;16.00;;;;;22.75;52.27;101143.80;110342;1265;19000;-48
2022/06/18 07:07:25;;;;;;;;;17.00;15.00;;;;;22.73;52.24;101138.35;110165;1264;18749;-48
2022/06/18 07:09:53;;;;;;;;;14.33;14.00;;;;;22.81;52.24;101126.89;110293;1264;19528;-49
2022/06/18 07:12:20;;;;;;;;;17.33;16.67;;;;;22.81;52.14;101124.13;110274;1264;18740;-48
2022/06/18 07:14:48;;;;;;;;;13.33;13.33;;;;;22.87;51.86;101125.57;110260;1264;18946;-47
2022/06/18 07:17:15;;;;;;;;;14.00;14.00;;;;;22.93;51.86;101118.49;110291;1264;20999;-47
2022/06/18 07:19:42;;;;;;;;;17.00;16.33;;;;;23.13;51.69;101120.08;110292;1264;18893;-47
2022/06/18 07:22:10;;;;;;;;;16.00;14.33;;;;;23.38;51.78;101122.64;110308;1262;19025;-49
2022/06/18 07:24:37;;;;;;;;;17.00;15.67;;;;;23.41;51.30;101115.05;110155;1262;20206;-48
2022/06/18 07:27:05;;;;;;;;;14.00;14.00;;;;;23.47;51.34;101116.09;110126;1262;18649;-47
2022/06/18 07:29:32;;;;;;;;;14.33;13.33;;;;;23.53;51.35;101112.20;110323;1262;18908;-46
2022/06/18 07:31:59;;;;;;;;;14.00;14.00;;;;;23.61;51.22;101111.96;110303;1264;19624;-47
2022/06/18 07:34:27;;;;;;;;;12.00;11.00;;;;;23.64;51.10;101112.48;110266;1264;18667;-49
2022/06/18 07:36:54;;;;;;;;;14.00;12.00;;;;;23.63;51.11;101106.24;110284;1264;18811;-48
2022/06/18 07:39:21;;;;;;;;;17.00;15.00;;;;;23.60;51.36;101105.32;110229;1263;19550;-48
2022/06/18 07:41:48;;;;;;;;;14.33;14.00;;;;;23.58;50.95;101103.02;110202;1264;18863;-49
2022/06/18 07:44:16;;;;;;;;;19.00;17.00;;;;;23.58;51.00;101102.09;110273;1264;18961;-47
2022/06/18 07:46:43;;;;;;;;;19.67;16.00;;;;;23.60;50.68;101097.80;110309;1265;22868;-49
2022/06/18 07:49:11;;;;;;;;;15.33;14.00;;;;;23.64;50.42;101096.25;110260;1264;19365;-48
2022/06/18 07:51:39;;;;;;;;;15.00;15.00;;;;;23.68;50.19;101097.91;110246;1264;18995;-48
2022/06/18 07:54:06;;;;;;;;;15.00;14.67;;;;;23.73;50.02;101093.59;110201;1263;19450;-48
2022/06/18 07:56:33;;;;;;;;;14.33;12.00;;;;;23.81;49.87;101092.02;110256;1264;18872;-50
2022/06/18 07:59:01;;;;;;;;;15.00;14.67;;;;;23.83;49.86;101083.02;110307;1264;22077;-49
2022/06/18 08:01:28;;;;;;;;;14.33;14.00;;;;;23.89;49.60;101085.59;110286;1264;19764;-49
2022/06/18 08:03:55;;;;;;;;;14.67;13.33;;;;;23.96;49.17;101082.80;110349;1264;18677;-49
2022/06/18 08:06:23;;;;;;;;;14.33;14.33;;;;;23.94;48.85;101080.30;110294;1264;18783;-48
2022/06/18 08:08:50;;;;;;;;;17.33;15.67;;;;;23.90;49.01;101072.31;110270;1264;19451;-49
2022/06/18 08:11:17;;;;;;;;;14.33;14.33;;;;;23.91;48.85;101068.72;110300;1265;18722;-49
2022/06/18 08:13:44;;;;;;;;;15.67;13.33;;;;;23.85;48.48;101065.02;110305;1264;20442;-48
2022/06/18 08:16:12;;;;;;;;;14.67;14.00;;;;;23.84;48.23;101053.84;110311;1264;22092;-49
2022/06/18 08:18:40;;;;;;;;;14.33;13.33;;;;;23.88;48.06;101054.34;110281;1264;18898;-48
2022/06/18 08:21:07;;;;;;;;;15.67;15.00;;;;;23.87;47.84;101051.67;110296;1264;22492;-49
2022/06/18 08:23:35;;;;;;;;;11.67;11.33;;;;;23.90;47.83;101054.71;110294;1264;22870;-48
2022/06/18 08:26:02;;;;;;;;;12.00;11.67;;;;;23.96;47.55;101050.56;110297;1264;21205;-47
2022/06/18 08:28:29;;;;;;;;;11.33;11.33;;;;;23.97;47.46;101044.91;110288;1264;19200;-48
2022/06/18 08:30:56;;;;;;;;;12.00;12.00;;;;;23.99;47.51;101043.54;110234;1264;19509;-47
2022/06/18 08:33:23;;;;;;;;;15.00;14.00;;;;;23.94;47.58;101040.87;110262;1264;18822;-49
2022/06/18 08:35:51;;;;;;;;;14.00;12.00;;;;;23.95;47.42;101041.30;110302;1264;18800;-49
2022/06/18 08:38:18;;;;;;;;;11.33;11.00;;;;;23.95;47.20;101039.66;110296;1264;19606;-49
2022/06/18 08:40:46;;;;;;;;;15.00;15.00;;;;;24.00;47.08;101037.95;110330;1264;18882;-49
2022/06/18 08:43:13;;;;;;;;;11.67;11.67;;;;;23.99;47.33;101029.30;110278;1264;20710;-50
2022/06/18 08:45:40;;;;;;;;;15.33;14.00;;;;;23.99;47.25;101029.02;110254;1264;19543;-49
2022/06/18 08:48:07;;;;;;;;;15.00;14.00;;;;;23.97;47.35;101024.27;110253;1264;18759;-49
2022/06/18 08:50:35;;;;;;;;;10.67;10.67;;;;;24.01;47.26;101018.88;110279;1264;23049;-49
2022/06/18 08:53:02;;;;;;;;;12.67;12.67;;;;;24.03;47.26;101013.17;110308;1264;19538;-48
2022/06/18 08:55:29;;;;;;;;;14.00;14.00;;;;;24.02;47.44;101010.63;110303;1264;20025;-49
2022/06/18 08:57:56;;;;;;;;;12.33;11.33;;;;;24.04;47.76;101011.34;110299;1264;18879;-48
2022/06/18 09:00:24;;;;;;;;;13.00;12.00;;;;;24.00;47.85;101004.25;110301;1265;19636;-48
2022/06/18 09:02:51;;;;;;;;;14.00;12.00;;;;;24.01;47.75;100995.67;110296;1264;18785;-48
2022/06/18 09:05:19;;;;;;;;;15.67;15.67;;;;;24.10;47.57;100989.70;110278;1264;19095;-48
2022/06/18 09:07:46;;;;;;;;;12.00;12.00;;;;;24.18;47.58;100986.02;110267;1264;19422;-49
2022/06/18 09:10:13;;;;;;;;;17.00;15.00;;;;;24.23;47.59;100988.52;110290;1264;19604;-48
2022/06/18 09:12:41;;;;;;;;;17.00;14.00;;;;;24.28;47.24;100985.73;110262;1264;18856;-53
2022/06/18 09:15:08;;;;;;;;;12.00;12.00;;;;;24.32;46.80;100980.31;110089;1264;19810;-49
2022/06/18 09:17:35;;;;;;;;;15.00;14.00;;;;;24.34;46.68;100980.73;110229;1264;20437;-49
2022/06/18 09:20:02;;;;;;;;;12.33;11.67;;;;;24.50;46.42;100973.44;110057;1264;23026;-47
2022/06/18 09:22:30;;;;;;;;;12.00;12.00;;;;;24.60;46.53;100970.54;110538;1265;19613;-49
2022/06/18 09:24:57;;;;;;;;;15.00;14.00;;;;;24.68;46.41;100972.63;110309;1264;18750;-49
2022/06/18 09:27:24;;;;;;;;;14.00;14.00;;;;;24.64;46.30;100964.20;110145;1264;21213;-47
2022/06/18 09:29:51;;;;;;;;;14.67;14.00;;;;;24.57;46.64;100956.42;110243;1264;19494;-47
2022/06/18 09:32:18;;;;;;;;;12.67;12.67;;;;;24.61;46.50;100956.13;110119;1263;18775;-50
2022/06/18 09:34:46;;;;;;;;;15.67;13.33;;;;;24.63;46.91;100954.21;110212;1264;18672;-48
2022/06/18 09:37:13;;;;;;;;;19.00;19.00;;;;;24.70;46.72;100952.75;110203;1264;21033;-52
2022/06/18 09:39:40;;;;;;;;;20.67;18.67;;;;;24.79;46.71;100946.84;110246;1264;18795;-47
2022/06/18 09:42:08;;;;;;;;;20.33;19.00;;;;;24.79;46.69;100943.00;110212;1264;18947;-45
2022/06/18 09:44:35;;;;;;;;;16.00;14.33;;;;;24.85;46.95;100945.70;110266;1264;19787;-47
2022/06/18 09:47:03;;;;;;;;;24.00;22.67;;;;;24.88;47.40;100943.48;110203;1264;18821;-48
2022/06/18 09:49:31;;;;;;;;;117.00;106.33;;;;;24.92;47.42;100930.81;110204;1264;22082;-51
2022/06/18 09:51:58;;;;;;;;;1056.67;1022.00;;;;;24.96;47.27;100921.57;110246;1264;19514;-49
2022/06/18 09:54:25;;;;;;;;;164.67;145.67;;;;;24.95;48.06;100923.38;110111;1264;20077;-47
2022/06/18 09:56:53;;;;;;;;;158.50;139.50;;;;;25.02;47.64;100914.19;110069;1262;19180;-49
2022/06/18 09:59:20;;;;;;;;;117.50;102.50;;;;;25.00;47.58;100912.11;110292;1264;20508;-52
2022/06/18 10:01:47;;;;;;;;;77.00;61.00;;;;;25.00;46.70;100913.23;110277;1264;19107;-48
2022/06/18 10:07:00;;;;;;;;;82.33;63.67;;;;;25.34;46.18;100910.21;110276;1264;19745;-49
2022/06/18 10:09:27;;;;;;;;;65.00;52.00;;;;;25.36;45.93;100900.09;110273;1264;20508;-49
2022/06/18 10:11:54;;;;;;;;;58.00;48.00;;;;;25.36;45.70;100903.05;110281;1264;20498;-49
2022/06/18 10:14:21;;;;;;;;;51.33;43.00;;;;;25.36;45.48;100904.15;110283;1264;19682;-51
2022/06/18 10:16:48;;;;;;;;;44.33;38.33;;;;;25.33;45.36;100900.49;110312;1265;18910;-50
2022/06/18 10:19:16;;;;;;;;;36.00;31.50;;;;;25.33;44.90;100892.02;110269;1264;19004;-50
2022/06/18 10:21:44;;;;;;;;;28.00;27.67;;;;;25.33;44.35;100891.17;110277;1264;19515;-48
2022/06/18 10:24:11;;;;;;;;;36.67;29.33;;;;;25.30;44.34;100894.58;110271;1265;20230;-48
2022/06/18 10:26:38;;;;;;;;;26.00;26.00;;;;;25.27;44.34;100891.77;110258;1264;21457;-50
2022/06/18 10:29:06;;;;;;;;;28.50;24.00;;;;;25.25;44.27;100882.73;110314;1265;22194;-49
2022/06/18 10:31:33;;;;;;;;;22.00;22.00;;;;;25.24;43.95;100881.20;109974;1262;18768;-48
2022/06/18 10:34:00;;;;;;;;;20.00;18.33;;;;;25.18;43.92;100880.76;110112;1262;19498;-49
2022/06/18 10:36:27;;;;;;;;;22.50;18.50;;;;;25.21;43.83;100877.91;110191;1265;20614;-48
2022/06/18 10:38:55;;;;;;;;;18.00;17.00;;;;;25.32;43.53;100870.02;110158;1264;18706;-56
2022/06/18 10:41:22;;;;;;;;;21.00;21.00;;;;;25.36;42.99;100866.33;110030;1264;19012;-49
2022/06/18 10:43:49;;;;;;;;;22.00;21.00;;;;;25.28;43.01;100862.88;110074;1264;22106;-52
2022/06/18 10:46:17;;;;;;;;;16.00;16.00;;;;;25.21;43.37;100860.59;110133;1264;18949;-48
2022/06/18 10:48:44;;;;;;;;;17.33;17.33;;;;;25.19;43.55;100858.48;110239;1262;22246;-48
2022/06/18 10:51:11;;;;;;;;;22.50;19.00;;;;;25.17;43.39;100851.64;110199;1264;19645;-52
2022/06/18 10:53:38;;;;;;;;;18.67;17.33;;;;;25.22;43.45;100852.94;110232;1264;18810;-49
2022/06/18 10:56:06;;;;;;;;;20.00;18.00;;;;;25.17;43.28;100851.39;110274;1265;19221;-49
2022/06/18 10:58:33;;;;;;;;;17.67;17.33;;;;;25.04;43.59;100847.94;110265;1264;19615;-50
2022/06/18 11:01:00;;;;;;;;;16.00;16.00;;;;;25.12;43.55;100850.09;110237;1264;19535;-49
2022/06/18 11:03:27;;;;;;;;;16.67;15.67;;;;;25.27;43.12;100847.16;110284;1265;18872;-48
2022/06/18 11:05:55;;;;;;;;;15.00;14.00;;;;;25.19;43.00;100843.21;110274;1265;19545;-48
2022/06/18 11:08:22;;;;;;;;;14.00;13.00;;;;;25.16;43.07;100837.25;110278;1264;18902;-49
2022/06/18 11:10:49;;;;;;;;;13.67;13.67;;;;;25.14;42.83;100830.27;110345;1265;23020;-51
2022/06/18 11:13:17;;;;;;;;;14.00;13.00;;;;;25.07;43.01;100828.24;110254;1264;19781;-48